createdAt,value
2019-05-20T00:02:23.179Z,25.90
2019-05-20T00:04:39.452Z,23.47
2019-05-20T00:07:08.064Z,23.67
2019-05-20T00:09:36.580Z,23.38
2019-05-20T00:12:05.203Z,22.85
2019-05-20T00:14:33.792Z,27.37
2019-05-20T00:17:02.344Z,23.67
2019-05-20T00:19:30.792Z,22.30
2019-05-20T00:21:59.340Z,23.02
2019-05-20T00:24:27.964Z,23.57
2019-05-20T00:26:56.582Z,23.67
2019-05-20T00:29:25.118Z,22.02
2019-05-20T00:31:53.735Z,23.65
2019-05-20T00:34:34.627Z,23.18
2019-05-20T00:36:52.681Z,24.92
2019-05-20T00:39:21.671Z,24.77
2019-05-20T00:41:50.374Z,23.92
2019-05-20T00:44:19.366Z,26.20
2019-05-20T00:46:47.951Z,26.00
2019-05-20T00:49:16.676Z,25.77
2019-05-20T00:51:46.173Z,25.00
2019-05-20T00:54:14.973Z,26.62
2019-05-20T00:56:43.585Z,27.27
2019-05-20T00:59:12.176Z,27.77
2019-05-20T01:01:40.709Z,27.10
2019-05-20T01:04:09.186Z,29.27
2019-05-20T01:06:37.836Z,28.52
2019-05-20T01:09:07.828Z,29.75
2019-05-20T01:11:36.422Z,29.95
2019-05-20T01:14:05.319Z,29.87
2019-05-20T01:16:33.923Z,30.40
2019-05-20T01:19:02.629Z,32.75
2019-05-20T01:21:31.203Z,28.98
2019-05-20T01:23:59.792Z,31.45
2019-05-20T01:26:28.536Z,29.87
2019-05-20T01:28:57.080Z,33.13
2019-05-20T01:31:25.689Z,31.30
2019-05-20T01:33:54.281Z,29.12
2019-05-20T01:36:22.873Z,31.00
2019-05-20T01:38:51.358Z,28.98
2019-05-20T01:41:19.812Z,34.08
2019-05-20T01:43:48.300Z,32.88
2019-05-20T01:46:16.958Z,34.03
2019-05-20T01:48:45.571Z,37.35
2019-05-20T01:51:14.165Z,36.45
2019-05-20T01:53:42.717Z,35.05
2019-05-20T01:56:11.347Z,38.02
2019-05-20T01:58:40.111Z,36.58
2019-05-20T02:01:08.757Z,39.38
2019-05-20T02:03:37.290Z,36.65
2019-05-20T02:06:05.896Z,41.30
2019-05-20T02:08:34.423Z,41.20
2019-05-20T02:11:02.954Z,39.18
2019-05-20T02:13:49.991Z,36.88
2019-05-20T02:16:19.712Z,37.78
2019-05-20T02:18:48.393Z,37.55
2019-05-20T02:21:16.942Z,40.73
2019-05-20T02:23:45.513Z,37.90
2019-05-20T02:26:14.039Z,37.28
2019-05-20T02:28:42.748Z,39.03
2019-05-20T02:31:11.303Z,37.35
2019-05-20T02:33:51.117Z,37.93
2019-05-20T02:36:10.087Z,37.80
2019-05-20T02:38:38.655Z,37.85
2019-05-20T02:41:07.418Z,38.85
2019-05-20T02:43:36.016Z,39.98
2019-05-20T02:46:05.262Z,41.28
2019-05-20T02:48:33.782Z,46.40
2019-05-20T02:51:02.330Z,50.98
2019-05-20T02:53:30.905Z,51.02
2019-05-20T02:55:59.435Z,66.37
2019-05-20T02:58:28.063Z,61.92
2019-05-20T03:00:56.670Z,79.05
2019-05-20T03:03:25.194Z,144.90
2019-05-20T03:05:53.722Z,149.00
2019-05-20T03:08:22.261Z,105.03
2019-05-20T03:10:50.883Z,133.55
2019-05-20T03:13:19.337Z,105.85
2019-05-20T03:15:47.792Z,98.12
2019-05-20T03:18:16.328Z,101.65
2019-05-20T03:20:44.790Z,132.82
2019-05-20T03:23:13.341Z,154.93
2019-05-20T03:25:42.135Z,76.05
2019-05-20T03:28:10.725Z,93.00
2019-05-20T03:30:39.256Z,103.72
2019-05-20T03:33:07.872Z,129.27
2019-05-20T03:35:36.407Z,91.45
2019-05-20T03:38:04.992Z,82.20
2019-05-20T03:40:33.587Z,73.35
2019-05-20T03:43:02.185Z,92.92
2019-05-20T03:45:30.912Z,97.55
2019-05-20T03:47:59.439Z,66.85
2019-05-20T03:50:27.994Z,76.60
2019-05-20T03:52:56.463Z,107.37
2019-05-20T03:55:24.923Z,78.17
2019-05-20T03:57:53.601Z,96.57
2019-05-20T04:00:41.713Z,78.62
2019-05-20T04:03:10.313Z,68.22
2019-05-20T04:05:39.806Z,64.53
2019-05-20T04:08:08.399Z,73.83
2019-05-20T04:10:37.062Z,70.25
2019-05-20T04:13:05.608Z,64.87
2019-05-20T04:15:34.302Z,68.22
2019-05-20T04:18:03.010Z,59.63
2019-05-20T04:20:32.409Z,74.65
2019-05-20T04:23:00.935Z,64.15
2019-05-20T04:25:29.529Z,68.87
2019-05-20T04:27:58.127Z,65.83
2019-05-20T04:30:26.735Z,60.75
2019-05-20T04:32:55.324Z,58.50
2019-05-20T04:35:23.960Z,59.30
2019-05-20T04:37:52.537Z,63.23
2019-05-20T04:40:21.160Z,60.15
2019-05-20T04:42:49.620Z,66.00
2019-05-20T04:45:18.427Z,67.15
2019-05-20T04:47:46.968Z,60.73
2019-05-20T04:50:15.654Z,57.98
2019-05-20T04:52:44.249Z,67.03
2019-05-20T04:55:12.831Z,62.33
2019-05-20T04:57:41.356Z,63.85
2019-05-20T05:00:10.551Z,65.60
2019-05-20T05:02:43.208Z,61.85
2019-05-20T05:05:09.769Z,60.30
2019-05-20T05:07:38.434Z,59.75
2019-05-20T05:10:08.692Z,62.58
2019-05-20T05:12:37.398Z,63.65
2019-05-20T05:15:08.983Z,63.63
2019-05-20T05:17:37.617Z,61.25
2019-05-20T05:20:06.870Z,63.65
2019-05-20T05:22:35.439Z,63.28
2019-05-20T05:25:05.456Z,65.52
2019-05-20T05:27:34.147Z,63.92
2019-05-20T05:30:02.743Z,67.42
2019-05-20T05:32:44.120Z,63.48
2019-05-20T05:35:16.473Z,70.78
2019-05-20T05:37:45.208Z,64.47
2019-05-20T05:40:15.189Z,65.17
2019-05-20T05:42:43.929Z,64.62
2019-05-20T05:45:13.031Z,67.00
2019-05-20T05:47:41.489Z,68.33
2019-05-20T05:50:10.196Z,67.12
2019-05-20T05:52:38.717Z,69.27
2019-05-20T05:55:07.516Z,66.95
2019-05-20T05:57:36.041Z,64.87
2019-05-20T06:00:06.836Z,62.10
2019-05-20T06:02:35.357Z,59.08
2019-05-20T06:05:04.348Z,59.98
2019-05-20T06:07:32.904Z,63.25
2019-05-20T06:10:01.447Z,57.85
2019-05-20T06:12:29.993Z,57.83
2019-05-20T06:14:58.518Z,61.60
2019-05-20T06:17:26.965Z,61.50
2019-05-20T06:19:55.512Z,62.03
2019-05-20T06:22:23.965Z,58.42
2019-05-20T06:24:52.608Z,59.83
2019-05-20T06:27:21.302Z,62.60
2019-05-20T06:29:49.928Z,63.35
2019-05-20T06:32:18.533Z,62.38
2019-05-20T06:34:47.139Z,62.75
2019-05-20T06:37:20.321Z,65.17
2019-05-20T06:39:51.226Z,63.48
2019-05-20T06:42:19.202Z,66.37
2019-05-20T06:44:53.040Z,62.90
2019-05-20T06:47:17.979Z,59.03
2019-05-20T06:49:46.558Z,61.37
2019-05-20T06:52:15.209Z,59.83
2019-05-20T06:54:43.790Z,65.15
2019-05-20T06:57:12.816Z,60.10
2019-05-20T06:59:41.612Z,62.50
2019-05-20T07:02:10.211Z,64.85
2019-05-20T07:04:38.735Z,60.63
2019-05-20T07:07:19.977Z,62.27
2019-05-20T07:09:37.468Z,63.87
2019-05-20T07:12:06.134Z,59.85
2019-05-20T07:14:34.789Z,60.92
2019-05-20T07:17:03.446Z,65.15
2019-05-20T07:19:32.023Z,59.90
2019-05-20T07:22:00.565Z,65.95
2019-05-20T07:24:29.081Z,55.95
2019-05-20T07:26:57.676Z,52.43
2019-05-20T07:29:26.254Z,54.55
2019-05-20T07:31:54.916Z,52.08
2019-05-20T07:34:23.376Z,54.03
2019-05-20T07:37:02.638Z,50.30
2019-05-20T07:39:22.321Z,50.35
2019-05-20T07:41:51.968Z,50.67
2019-05-20T07:44:20.489Z,44.98
2019-05-20T07:46:49.301Z,46.00
2019-05-20T07:49:18.424Z,49.85
2019-05-20T07:51:48.763Z,46.40
2019-05-20T07:54:18.862Z,48.35
2019-05-20T07:56:49.765Z,47.13
2019-05-20T07:59:21.310Z,48.92
2019-05-20T08:01:51.312Z,53.28
2019-05-20T08:04:19.993Z,48.05
2019-05-20T08:06:48.723Z,47.43
2019-05-20T08:09:17.326Z,49.18
2019-05-20T08:11:45.950Z,46.08
2019-05-20T08:14:14.515Z,44.27
2019-05-20T08:16:43.139Z,45.08
2019-05-20T08:19:11.737Z,45.48
2019-05-20T08:21:40.333Z,46.35
2019-05-20T08:24:08.920Z,46.00
2019-05-20T08:26:37.494Z,48.52
2019-05-20T08:29:06.120Z,49.38
2019-05-20T08:31:34.662Z,49.05
2019-05-20T08:34:03.422Z,46.02
2019-05-20T08:36:32.217Z,44.27
2019-05-20T08:39:00.747Z,48.55
2019-05-20T08:41:29.548Z,44.63
2019-05-20T08:43:58.155Z,45.45
2019-05-20T08:46:26.762Z,46.53
2019-05-20T08:48:55.341Z,47.15
2019-05-20T08:51:23.918Z,50.88
2019-05-20T08:53:52.460Z,45.98
2019-05-20T08:56:20.994Z,41.60
2019-05-20T08:58:49.461Z,45.33
2019-05-20T09:01:17.961Z,46.50
2019-05-20T09:03:46.484Z,45.40
2019-05-20T09:06:15.168Z,39.42
2019-05-20T09:08:43.735Z,41.83
2019-05-20T09:11:12.364Z,38.50
2019-05-20T09:13:40.822Z,43.33
2019-05-20T09:16:09.387Z,40.50
2019-05-20T09:18:38.099Z,40.28
2019-05-20T09:21:06.753Z,40.80
2019-05-20T09:23:35.222Z,42.90
2019-05-20T09:26:04.029Z,41.10
2019-05-20T09:28:32.632Z,39.45
2019-05-20T09:31:01.450Z,40.12
2019-05-20T09:33:30.615Z,37.25
2019-05-20T09:35:59.246Z,38.08
2019-05-20T09:38:27.776Z,39.23
2019-05-20T09:40:56.397Z,38.23
2019-05-20T09:43:25.103Z,38.20
2019-05-20T09:46:06.327Z,35.43
2019-05-20T09:48:25.246Z,46.33
2019-05-20T09:50:54.533Z,37.23
2019-05-20T09:53:23.917Z,37.98
2019-05-20T09:55:52.683Z,35.45
2019-05-20T09:58:21.366Z,37.70
2019-05-20T10:00:49.946Z,35.43
2019-05-20T10:03:18.494Z,38.48
2019-05-20T10:05:47.109Z,39.98
2019-05-20T10:08:15.739Z,39.10
2019-05-20T10:10:44.401Z,33.95
2019-05-20T10:13:13.021Z,32.38
2019-05-20T10:15:41.587Z,34.40
2019-05-20T10:18:10.180Z,38.53
2019-05-20T10:20:38.702Z,35.83
2019-05-20T10:23:07.454Z,37.95
2019-05-20T10:25:35.960Z,34.95
2019-05-20T10:28:04.666Z,33.33
2019-05-20T10:30:33.254Z,33.48
2019-05-20T10:33:01.861Z,37.15
2019-05-20T10:35:30.431Z,36.73
2019-05-20T10:37:59.071Z,37.08
2019-05-20T10:40:27.723Z,38.28
2019-05-20T10:42:56.180Z,38.65
2019-05-20T10:45:24.715Z,38.73
2019-05-20T10:47:53.328Z,37.85
2019-05-20T10:50:22.064Z,36.42
2019-05-20T10:52:50.672Z,38.35
2019-05-20T10:55:19.821Z,37.48
2019-05-20T10:57:48.273Z,34.90
2019-05-20T11:00:18.521Z,37.00
2019-05-20T11:02:47.270Z,34.63
2019-05-20T11:05:16.023Z,34.90
2019-05-20T11:07:45.308Z,35.05
2019-05-20T11:10:15.003Z,33.70
2019-05-20T11:12:43.550Z,31.17
2019-05-20T11:15:12.440Z,35.73
2019-05-20T11:17:41.165Z,32.75
2019-05-20T11:20:10.463Z,38.63
2019-05-20T11:22:38.907Z,36.60
2019-05-20T11:25:08.390Z,36.23
2019-05-20T11:27:37.021Z,35.70
2019-05-20T11:30:09.861Z,34.58
2019-05-20T11:32:38.439Z,37.78
2019-05-20T11:35:08.634Z,34.15
2019-05-20T11:37:37.222Z,35.75
2019-05-20T11:40:09.905Z,37.48
2019-05-20T11:42:39.008Z,36.80
2019-05-20T11:45:09.391Z,35.50
2019-05-20T11:47:38.006Z,35.88
2019-05-20T11:50:07.709Z,37.08
2019-05-20T11:52:36.296Z,38.73
2019-05-20T11:55:09.174Z,37.88
2019-05-20T11:57:37.866Z,36.83
2019-05-20T12:00:08.212Z,38.02
2019-05-20T12:02:36.740Z,38.73
2019-05-20T12:05:09.747Z,36.85
2019-05-20T12:07:38.341Z,36.95
2019-05-20T12:10:08.059Z,35.20
2019-05-20T12:12:36.677Z,38.40
2019-05-20T12:15:09.714Z,37.88
2019-05-20T12:17:38.330Z,37.93
2019-05-20T12:20:10.874Z,37.48
2019-05-20T12:22:39.176Z,40.33
2019-05-20T12:25:08.435Z,36.05
2019-05-20T12:27:37.047Z,42.17
2019-05-20T12:30:06.841Z,60.88
2019-05-20T12:32:35.372Z,39.83
2019-05-20T12:35:05.771Z,38.42
2019-05-20T12:37:34.339Z,41.60
2019-05-20T12:40:07.865Z,37.55
2019-05-20T12:42:33.184Z,38.08
2019-05-20T12:45:01.748Z,37.85
2019-05-20T12:47:30.261Z,39.73
2019-05-20T12:49:58.803Z,36.42
2019-05-20T12:52:27.392Z,39.15
2019-05-20T12:55:06.859Z,40.85
2019-05-20T12:57:26.321Z,37.40
2019-05-20T12:59:54.952Z,39.40
2019-05-20T13:02:23.472Z,39.63
2019-05-20T13:04:51.990Z,39.55
2019-05-20T13:07:20.588Z,38.20
2019-05-20T13:09:49.109Z,37.38
2019-05-20T13:12:17.633Z,36.28
2019-05-20T13:14:46.157Z,38.88
2019-05-20T13:17:14.609Z,36.17
2019-05-20T13:19:43.140Z,41.90
2019-05-20T13:22:11.766Z,40.73
2019-05-20T13:24:40.291Z,51.37
2019-05-20T13:27:08.852Z,73.47
2019-05-20T13:29:37.490Z,53.55
2019-05-20T13:32:06.108Z,58.02
2019-05-20T13:34:34.644Z,45.20
2019-05-20T13:37:03.280Z,40.75
2019-05-20T13:39:33.051Z,40.75
2019-05-20T13:42:03.308Z,46.08
2019-05-20T13:44:31.868Z,38.65
2019-05-20T13:47:00.488Z,38.28
2019-05-20T13:49:29.035Z,37.48
2019-05-20T13:51:57.563Z,41.88
2019-05-20T13:54:26.209Z,43.40
2019-05-20T13:56:55.159Z,44.93
2019-05-20T13:59:23.836Z,49.55
2019-05-20T14:01:52.479Z,47.48
2019-05-20T14:04:21.272Z,47.75
2019-05-20T14:06:49.825Z,45.65
2019-05-20T14:09:18.417Z,47.17
2019-05-20T14:11:47.027Z,48.70
2019-05-20T14:14:15.666Z,51.10
2019-05-20T14:16:44.284Z,46.42
2019-05-20T14:19:12.814Z,49.13
2019-05-20T14:21:41.380Z,49.83
2019-05-20T14:24:09.984Z,46.98
2019-05-20T14:26:38.552Z,50.83
2019-05-20T14:29:07.153Z,48.42
2019-05-20T14:31:35.638Z,44.88
2019-05-20T14:34:04.238Z,44.20
2019-05-20T14:36:40.519Z,45.45
2019-05-20T14:39:04.894Z,47.45
2019-05-20T14:41:33.544Z,45.73
2019-05-20T14:44:02.189Z,43.95
2019-05-20T14:46:30.659Z,42.50
2019-05-20T14:49:02.408Z,42.43
2019-05-20T14:51:29.462Z,42.70
2019-05-20T14:53:57.984Z,40.75
2019-05-20T14:56:26.501Z,43.25
2019-05-20T14:58:55.839Z,41.60
2019-05-20T15:01:24.509Z,42.78
2019-05-20T15:03:53.119Z,37.95
2019-05-20T15:06:21.860Z,41.50
2019-05-20T15:08:50.390Z,37.25
2019-05-20T15:11:18.839Z,42.65
2019-05-20T15:13:47.438Z,40.15
2019-05-20T15:16:16.070Z,40.40
2019-05-20T15:18:44.587Z,40.23
2019-05-20T15:21:13.172Z,42.48
2019-05-20T15:23:42.587Z,38.15
2019-05-20T15:26:11.178Z,44.08
2019-05-20T15:28:39.712Z,39.65
2019-05-20T15:31:08.237Z,40.55
2019-05-20T15:33:36.888Z,38.73
2019-05-20T15:36:05.743Z,38.60
2019-05-20T15:38:34.196Z,34.18
2019-05-20T15:41:02.718Z,34.60
2019-05-20T15:43:31.177Z,34.13
2019-05-20T15:45:59.799Z,35.78
2019-05-20T15:48:28.361Z,36.68
2019-05-20T15:50:56.865Z,40.85
2019-05-20T15:53:25.455Z,38.58
2019-05-20T15:55:54.016Z,36.15
2019-05-20T15:58:23.886Z,37.33
2019-05-20T16:00:52.740Z,36.42
2019-05-20T16:03:21.293Z,39.05
2019-05-20T16:05:49.880Z,39.88
2019-05-20T16:08:18.402Z,35.25
2019-05-20T16:10:46.966Z,37.15
2019-05-20T16:13:15.556Z,38.73
2019-05-20T16:15:44.090Z,39.63
2019-05-20T16:18:12.709Z,38.80
2019-05-20T16:20:41.244Z,41.42
2019-05-20T16:23:09.801Z,40.48
2019-05-20T16:25:38.372Z,42.83
2019-05-20T16:28:07.275Z,39.83
2019-05-20T16:30:35.923Z,39.73
2019-05-20T16:33:04.583Z,41.68
2019-05-20T16:35:33.100Z,40.08
2019-05-20T16:38:01.931Z,40.65
2019-05-20T16:40:30.608Z,41.35
2019-05-20T16:42:59.257Z,43.78
2019-05-20T16:45:27.959Z,43.23
2019-05-20T16:48:14.264Z,44.40
2019-05-20T16:50:42.931Z,39.40
2019-05-20T16:53:11.539Z,45.15
2019-05-20T16:55:40.062Z,43.68
2019-05-20T16:58:08.631Z,43.10
2019-05-20T17:00:37.650Z,49.25
2019-05-20T17:03:06.241Z,43.83
2019-05-20T17:05:34.908Z,43.38
2019-05-20T17:08:03.504Z,43.75
2019-05-20T17:10:32.040Z,45.30
2019-05-20T17:13:01.030Z,44.35
2019-05-20T17:15:30.121Z,45.28
2019-05-20T17:17:59.040Z,44.50
2019-05-20T17:20:27.620Z,41.88
2019-05-20T17:22:56.353Z,45.95
2019-05-20T17:25:25.965Z,46.37
2019-05-20T17:27:55.192Z,43.50
2019-05-20T17:30:24.981Z,46.88
2019-05-20T17:32:53.803Z,50.90
2019-05-20T17:35:23.386Z,43.55
2019-05-20T17:37:55.370Z,46.10
2019-05-20T17:40:24.961Z,43.65
2019-05-20T17:42:54.414Z,43.08
2019-05-20T17:45:24.411Z,42.70
2019-05-20T17:47:55.154Z,41.68
2019-05-20T17:50:24.185Z,45.05
2019-05-20T17:52:52.871Z,42.83
2019-05-20T17:55:21.668Z,39.85
2019-05-20T17:57:50.495Z,46.50
2019-05-20T18:00:23.892Z,41.30
2019-05-20T18:02:52.799Z,42.45
2019-05-20T18:05:21.474Z,40.17
2019-05-20T18:07:50.083Z,41.88
2019-05-20T18:10:20.318Z,42.73
2019-05-20T18:12:49.168Z,42.03
2019-05-20T18:15:17.967Z,41.20
2019-05-20T18:17:47.084Z,43.73
2019-05-20T18:20:16.862Z,41.25
2019-05-20T18:22:45.736Z,40.33
2019-05-20T18:25:15.376Z,42.65
2019-05-20T18:27:44.764Z,39.60
2019-05-20T18:30:15.026Z,43.68
2019-05-20T18:32:45.263Z,42.53
2019-05-20T18:35:15.613Z,43.68
2019-05-20T18:37:45.487Z,46.45
2019-05-20T18:40:16.307Z,46.02
2019-05-20T18:42:46.268Z,44.93
2019-05-20T18:45:15.930Z,42.75
2019-05-20T18:47:45.886Z,45.85
2019-05-20T18:50:17.429Z,45.65
2019-05-20T18:52:47.858Z,47.48
2019-05-20T18:55:18.475Z,42.90
2019-05-20T18:57:48.841Z,45.95
2019-05-20T19:00:19.612Z,43.45
2019-05-20T19:02:49.757Z,47.30
2019-05-20T19:05:20.398Z,45.45
2019-05-20T19:07:52.320Z,45.33
2019-05-20T19:10:40.633Z,45.80
2019-05-20T19:13:11.946Z,50.95
2019-05-20T19:15:43.428Z,48.50
2019-05-20T19:18:14.573Z,50.45
2019-05-20T19:20:45.688Z,48.87
2019-05-20T19:23:16.750Z,47.75
2019-05-20T19:25:47.699Z,53.02
2019-05-20T19:28:18.876Z,49.33
2019-05-20T19:31:43.162Z,46.33
2019-05-20T19:34:14.820Z,48.65
2019-05-20T19:36:45.510Z,47.58
2019-05-20T19:39:16.384Z,50.23
2019-05-20T19:41:46.607Z,47.38
2019-05-20T19:44:17.847Z,51.73
2019-05-20T19:46:48.569Z,50.17
2019-05-20T19:49:19.310Z,51.37
2019-05-20T19:52:43.242Z,46.10
2019-05-20T19:55:13.523Z,48.20
2019-05-20T19:57:43.545Z,46.63
2019-05-20T20:00:13.880Z,49.88
2019-05-20T20:02:43.535Z,45.48
2019-05-20T20:05:13.749Z,48.70
2019-05-20T20:07:44.121Z,45.50
2019-05-20T20:10:14.539Z,44.38
2019-05-20T20:12:44.358Z,46.85
2019-05-20T20:15:20.822Z,41.90
2019-05-20T20:17:50.773Z,45.43
2019-05-20T20:20:20.864Z,42.75
2019-05-20T20:22:51.277Z,43.98
2019-05-20T20:25:21.613Z,43.98
2019-05-20T20:27:51.906Z,48.65
2019-05-20T20:30:21.669Z,44.50
2019-05-20T20:33:46.330Z,43.45
2019-05-20T20:36:16.417Z,45.23
2019-05-20T20:38:46.488Z,45.75
2019-05-20T20:41:16.994Z,42.35
2019-05-20T20:43:46.824Z,40.40
2019-05-20T20:46:16.386Z,40.90
2019-05-20T20:48:45.965Z,42.38
2019-05-20T20:51:14.967Z,40.90
2019-05-20T20:53:43.656Z,41.10
2019-05-20T20:56:24.711Z,44.35
2019-05-20T20:58:42.590Z,40.08
2019-05-20T21:01:11.506Z,40.83
2019-05-20T21:03:40.341Z,41.08
2019-05-20T21:06:09.021Z,39.88
2019-05-20T21:08:37.638Z,41.28
2019-05-20T21:11:07.018Z,43.63
2019-05-20T21:13:35.697Z,40.30
2019-05-20T21:16:04.316Z,44.27
2019-05-20T21:18:32.890Z,43.28
2019-05-20T21:21:01.482Z,43.58
2019-05-20T21:23:30.102Z,40.83
2019-05-20T21:25:58.620Z,45.23
2019-05-20T21:28:27.191Z,43.08
2019-05-20T21:30:55.647Z,43.02
2019-05-20T21:33:24.102Z,45.60
2019-05-20T21:35:52.772Z,49.63
2019-05-20T21:38:21.384Z,45.52
2019-05-20T21:40:49.976Z,45.43
2019-05-20T21:43:18.650Z,50.08
2019-05-20T21:45:47.163Z,51.60
2019-05-20T21:48:15.693Z,54.88
2019-05-20T21:50:44.142Z,59.90
2019-05-20T21:53:12.702Z,53.78
2019-05-20T21:55:41.219Z,57.93
2019-05-20T21:58:09.691Z,52.45
2019-05-20T22:00:45.947Z,53.73
2019-05-20T22:03:23.975Z,53.90
2019-05-20T22:05:44.821Z,53.73
2019-05-20T22:08:13.422Z,56.30
2019-05-20T22:10:41.876Z,55.63
2019-05-20T22:13:10.344Z,58.90
2019-05-20T22:15:38.931Z,56.77
2019-05-20T22:18:07.548Z,56.77
2019-05-20T22:20:36.133Z,57.35
2019-05-20T22:23:22.473Z,51.25
2019-05-20T22:25:52.500Z,54.95
2019-05-20T22:28:21.105Z,54.67
2019-05-20T22:30:49.820Z,56.40
2019-05-20T22:33:18.367Z,50.65
2019-05-20T22:35:46.869Z,51.65
2019-05-20T22:38:15.391Z,52.67
2019-05-20T22:40:44.475Z,53.00
2019-05-20T22:43:13.012Z,54.33
2019-05-20T22:45:41.489Z,50.38
2019-05-20T22:48:09.935Z,54.25
2019-05-20T22:50:38.547Z,52.73
2019-05-20T22:53:07.030Z,52.05
2019-05-20T22:55:35.497Z,56.53
2019-05-20T22:58:04.102Z,58.42
2019-05-20T23:00:32.654Z,55.70
2019-05-20T23:03:01.109Z,52.67
2019-05-20T23:05:29.579Z,56.10
2019-05-20T23:07:58.040Z,54.38
2019-05-20T23:10:26.631Z,57.43
2019-05-20T23:12:55.241Z,55.75
2019-05-20T23:15:23.814Z,54.58
2019-05-20T23:17:52.367Z,53.78
2019-05-20T23:20:20.947Z,51.35
2019-05-20T23:22:49.420Z,59.30
2019-05-20T23:25:17.899Z,57.53
2019-05-20T23:27:46.417Z,57.35
2019-05-20T23:30:15.336Z,58.20
2019-05-20T23:32:43.789Z,56.40
2019-05-20T23:35:12.425Z,52.33
2019-05-20T23:37:40.882Z,59.88
2019-05-20T23:40:11.120Z,53.00
2019-05-20T23:42:39.551Z,58.45
2019-05-20T23:45:08.838Z,59.77
2019-05-20T23:47:37.593Z,54.77
2019-05-20T23:50:06.680Z,55.38
2019-05-20T23:52:35.168Z,56.08
2019-05-20T23:55:05.103Z,56.50
2019-05-20T23:57:33.624Z,52.67
